Aberdeen, Washington
Current Conditions -  °F | °C
As of 3:53 PM on Saturday 22 Nov 2014 (Local Time) from KHQM Reporting Station
Haze Haze  
Wind Chill: 52°   Ceiling: Unl
Heat Index: 52°   Visibility: 6mi
Dew Point: 43°   Wind: 10mph
Humidity: 71%   Direction: 260°W
Pressure: 29.99"   Gusts: NA
Location:  46.98°N, 123.81°W
Report Text: KHQM 222353Z AUTO 26009KT 6SM HZ CLR 11/06 A2999 RMK AO2 SLP160 60000 T01110061 10117 20083 51033
Loading
Personal Weather Stations






























Interactive Weather Map New forecast layout! Learn more

10-Day Weather Forecast

Advertisements
Track Severe Weather on mobile